createdAt,value
2023-02-19T00:02:07.493Z,69.56
2023-02-19T00:04:35.607Z,69.52
2023-02-19T00:07:03.727Z,69.51
2023-02-19T00:09:31.961Z,69.65
2023-02-19T00:11:59.896Z,69.53
2023-02-19T00:14:28.061Z,69.36
2023-02-19T00:16:56.259Z,69.25
2023-02-19T00:19:24.704Z,69.34
2023-02-19T00:21:54.042Z,69.33
2023-02-19T00:24:22.503Z,69.33
2023-02-19T00:26:50.639Z,69.38
2023-02-19T00:29:21.732Z,69.51
2023-02-19T00:31:50.736Z,69.55
2023-02-19T00:34:18.808Z,69.80
2023-02-19T00:36:46.858Z,69.90
2023-02-19T00:39:16.121Z,69.91
2023-02-19T00:41:45.868Z,70.03
2023-02-19T00:44:14.092Z,70.20
2023-02-19T00:46:46.207Z,70.37
2023-02-19T00:49:20.828Z,70.83
2023-02-19T00:51:49.436Z,70.88
2023-02-19T00:54:18.384Z,70.91
2023-02-19T00:56:47.136Z,70.84
2023-02-19T00:59:15.535Z,70.68
2023-02-19T01:01:45.125Z,70.52
2023-02-19T01:04:13.820Z,70.33
2023-02-19T01:06:42.204Z,70.28
2023-02-19T01:09:10.477Z,70.32
2023-02-19T01:11:38.764Z,70.22
2023-02-19T01:14:07.029Z,70.24
2023-02-19T01:16:35.561Z,70.37
2023-02-19T01:19:04.057Z,70.40
2023-02-19T01:21:32.133Z,70.59
2023-02-19T01:24:01.574Z,70.72
2023-02-19T01:26:32.284Z,70.82
2023-02-19T01:29:01.339Z,70.86
2023-02-19T01:31:30.332Z,70.88
2023-02-19T01:34:21.586Z,70.92
2023-02-19T01:36:49.759Z,71.10
2023-02-19T01:39:17.840Z,71.26
2023-02-19T01:41:46.076Z,71.47
2023-02-19T01:44:19.104Z,71.49
2023-02-19T01:46:48.807Z,71.54
2023-02-19T01:49:29.272Z,71.58
2023-02-19T01:52:05.504Z,71.54
2023-02-19T01:54:38.349Z,71.78
2023-02-19T01:57:10.966Z,71.89
2023-02-19T01:59:40.099Z,71.87
2023-02-19T02:02:09.578Z,72.10
2023-02-19T02:04:37.627Z,72.19
2023-02-19T02:08:04.756Z,72.23
2023-02-19T02:11:10.711Z,72.28
2023-02-19T02:14:39.542Z,72.11
2023-02-19T02:18:26.685Z,72.43
2023-02-19T02:21:35.556Z,72.42
2023-02-19T02:25:20.989Z,72.33
2023-02-19T02:28:48.672Z,72.34
2023-02-19T02:32:21.949Z,72.57
2023-02-19T02:36:35.162Z,72.79
2023-02-19T02:40:24.562Z,72.81
2023-02-19T02:44:14.911Z,72.87
2023-02-19T02:48:03.373Z,72.79
2023-02-19T02:51:52.965Z,72.54
2023-02-19T02:55:06.335Z,72.63
2023-02-19T02:58:52.291Z,72.68
2023-02-19T03:02:40.934Z,72.61
2023-02-19T03:06:00.134Z,72.47
2023-02-19T03:09:49.758Z,72.50
2023-02-19T03:13:38.846Z,72.48
2023-02-19T03:17:10.475Z,72.43
2023-02-19T03:21:00.989Z,72.42
2023-02-19T03:24:49.470Z,72.52
2023-02-19T03:28:36.602Z,72.31
2023-02-19T03:32:26.667Z,72.05
2023-02-19T03:36:15.468Z,72.21
2023-02-19T03:39:43.746Z,72.31
2023-02-19T03:43:27.874Z,72.22
2023-02-19T03:46:57.061Z,72.21
2023-02-19T03:51:02.946Z,72.20
2023-02-19T03:55:07.736Z,72.32
2023-02-19T03:58:36.879Z,72.46
2023-02-19T04:01:47.369Z,72.27
2023-02-19T04:05:19.199Z,72.16
2023-02-19T04:08:45.015Z,72.19
2023-02-19T04:12:33.558Z,72.36
2023-02-19T04:15:44.387Z,72.50
2023-02-19T04:18:57.990Z,72.47
2023-02-19T04:22:27.294Z,72.48
2023-02-19T04:25:58.337Z,72.49
2023-02-19T04:29:37.754Z,72.52
2023-02-19T04:33:07.457Z,72.55
2023-02-19T04:36:16.636Z,72.67
2023-02-19T04:40:05.154Z,72.79
2023-02-19T04:43:19.650Z,73.00
2023-02-19T04:46:49.402Z,73.07
2023-02-19T04:50:39.608Z,73.24
2023-02-19T04:54:28.958Z,73.20
2023-02-19T04:58:17.457Z,73.62
2023-02-19T05:01:27.549Z,73.52
2023-02-19T05:04:43.378Z,73.61
2023-02-19T05:08:33.117Z,73.61
2023-02-19T05:12:02.768Z,73.76
2023-02-19T05:15:16.676Z,73.79
2023-02-19T05:18:52.772Z,73.93
2023-02-19T05:22:32.763Z,73.91
2023-02-19T05:25:03.907Z,73.78
2023-02-19T05:28:36.993Z,73.52
2023-02-19T05:31:50.766Z,73.55
2023-02-19T05:35:40.105Z,73.47
2023-02-19T05:38:55.552Z,73.42
2023-02-19T05:42:22.510Z,73.34
2023-02-19T05:45:51.605Z,73.27
2023-02-19T05:49:21.865Z,73.32
2023-02-19T05:52:50.629Z,73.33
2023-02-19T05:57:06.102Z,73.37
2023-02-19T06:00:34.240Z,73.45
2023-02-19T06:03:57.103Z,73.44
2023-02-19T06:07:08.845Z,73.61
2023-02-19T06:10:06.507Z,73.64
2023-02-19T06:12:56.846Z,73.64
2023-02-19T06:15:28.603Z,73.53
2023-02-19T06:17:56.768Z,73.38
2023-02-19T06:20:26.303Z,73.13
2023-02-19T06:22:54.524Z,73.07
2023-02-19T06:25:22.448Z,73.07
2023-02-19T06:27:50.429Z,72.95
2023-02-19T06:31:18.673Z,73.07
2023-02-19T06:34:48.415Z,73.30
2023-02-19T06:37:58.004Z,73.57
2023-02-19T06:41:08.284Z,73.54
2023-02-19T06:44:40.876Z,73.60
2023-02-19T06:47:51.141Z,73.43
2023-02-19T06:51:40.280Z,73.36
2023-02-19T06:55:10.009Z,73.52
2023-02-19T06:58:39.681Z,73.66
2023-02-19T07:02:10.709Z,73.55
2023-02-19T07:05:21.390Z,73.55
2023-02-19T07:09:10.689Z,73.41
2023-02-19T07:12:48.857Z,73.52
2023-02-19T07:15:52.099Z,73.57
2023-02-19T07:18:36.203Z,73.36
2023-02-19T07:21:10.259Z,73.23
2023-02-19T07:23:39.519Z,73.04
2023-02-19T07:26:44.163Z,72.94
2023-02-19T07:30:24.717Z,73.05
2023-02-19T07:34:12.241Z,73.25
2023-02-19T07:37:35.866Z,73.33
2023-02-19T07:40:55.076Z,73.32
2023-02-19T07:43:45.280Z,73.23
2023-02-19T07:46:14.539Z,73.25
2023-02-19T07:48:51.214Z,73.10
2023-02-19T07:51:44.653Z,73.16
2023-02-19T07:54:52.360Z,73.17
2023-02-19T07:58:01.600Z,73.08
2023-02-19T08:00:33.238Z,73.27
2023-02-19T08:03:50.624Z,73.17
2023-02-19T08:07:07.383Z,73.07
2023-02-19T08:10:36.733Z,73.14
2023-02-19T08:14:06.196Z,73.01
2023-02-19T08:17:58.609Z,73.18
2023-02-19T08:21:45.055Z,73.29
2023-02-19T08:25:34.059Z,73.33
2023-02-19T08:28:02.297Z,73.24
2023-02-19T08:30:32.369Z,73.20
2023-02-19T08:33:23.211Z,73.15
2023-02-19T08:36:12.731Z,72.93
2023-02-19T08:39:50.277Z,72.80
2023-02-19T08:42:19.028Z,72.98
2023-02-19T08:45:28.813Z,73.03
2023-02-19T08:48:46.037Z,72.96
2023-02-19T08:52:15.235Z,72.99
2023-02-19T08:55:45.681Z,73.02
2023-02-19T08:59:33.041Z,72.99
2023-02-19T09:03:21.779Z,72.90
2023-02-19T09:07:12.058Z,72.95
2023-02-19T09:10:42.171Z,72.88
2023-02-19T09:13:51.679Z,72.85
2023-02-19T09:17:22.143Z,72.68
2023-02-19T09:20:51.883Z,72.43
2023-02-19T09:23:36.313Z,72.65
2023-02-19T09:26:08.676Z,72.54
2023-02-19T09:28:38.334Z,72.39
2023-02-19T09:31:11.888Z,72.29
2023-02-19T09:33:44.774Z,72.05
2023-02-19T09:36:33.649Z,72.00
2023-02-19T09:39:02.205Z,71.63
2023-02-19T09:41:32.188Z,71.35
2023-02-19T09:44:02.752Z,70.76
2023-02-19T09:46:38.689Z,70.17
2023-02-19T09:49:14.794Z,70.22
2023-02-19T09:52:10.489Z,69.89
2023-02-19T09:54:40.125Z,70.03
2023-02-19T09:57:16.614Z,69.91
2023-02-19T09:59:49.190Z,69.70
2023-02-19T10:02:18.954Z,69.82
2023-02-19T10:04:51.388Z,69.96
2023-02-19T10:07:23.544Z,69.91
2023-02-19T10:09:57.618Z,69.90
2023-02-19T10:12:29.475Z,70.47
2023-02-19T10:15:33.341Z,71.07
2023-02-19T10:18:30.973Z,71.37
2023-02-19T10:20:59.293Z,71.71
2023-02-19T10:23:27.763Z,71.84
2023-02-19T10:25:58.111Z,71.80
2023-02-19T10:28:30.243Z,71.59
2023-02-19T10:31:01.147Z,71.18
2023-02-19T10:33:29.709Z,71.02
2023-02-19T10:36:07.384Z,71.31
2023-02-19T10:38:45.291Z,71.54
2023-02-19T10:41:22.972Z,71.17
2023-02-19T10:44:00.416Z,70.94
2023-02-19T10:46:33.220Z,70.95
2023-02-19T10:49:15.639Z,70.96
2023-02-19T10:51:44.172Z,70.83
2023-02-19T10:54:24.654Z,70.44
2023-02-19T10:56:52.800Z,69.65
2023-02-19T10:59:28.912Z,69.45
2023-02-19T11:02:17.548Z,69.31
2023-02-19T11:05:07.687Z,69.47
2023-02-19T11:07:45.149Z,69.67
2023-02-19T11:10:42.463Z,69.91
2023-02-19T11:13:17.125Z,69.93
2023-02-19T11:15:53.256Z,69.63
2023-02-19T11:18:31.318Z,68.87
2023-02-19T11:21:02.868Z,68.04
2023-02-19T11:23:37.300Z,67.92
2023-02-19T11:26:16.552Z,68.06
2023-02-19T11:28:45.092Z,68.33
2023-02-19T11:31:19.513Z,68.38
2023-02-19T11:33:50.800Z,68.19
2023-02-19T11:36:26.807Z,67.85
2023-02-19T11:38:56.640Z,67.34
2023-02-19T11:41:57.359Z,67.60
2023-02-19T11:44:39.927Z,67.66
2023-02-19T11:47:29.385Z,67.65
2023-02-19T11:50:12.818Z,67.79
2023-02-19T11:52:52.702Z,67.82
2023-02-19T11:55:39.152Z,67.24
2023-02-19T11:59:00.989Z,67.57
2023-02-19T12:01:38.863Z,67.77
2023-02-19T12:04:25.650Z,66.92
2023-02-19T12:07:12.527Z,67.00
2023-02-19T12:10:25.473Z,67.35
2023-02-19T12:13:38.816Z,67.79
2023-02-19T12:16:28.710Z,68.09
2023-02-19T12:19:24.154Z,67.85
2023-02-19T12:22:33.521Z,68.00
2023-02-19T12:25:40.275Z,68.22
2023-02-19T12:28:31.577Z,68.32
2023-02-19T12:31:35.079Z,68.33
2023-02-19T12:34:24.922Z,68.23
2023-02-19T12:37:23.163Z,67.89
2023-02-19T12:41:03.477Z,68.12
2023-02-19T12:44:56.479Z,68.78
2023-02-19T12:48:32.316Z,68.33
2023-02-19T12:52:27.678Z,67.67
2023-02-19T12:56:56.528Z,67.64
2023-02-19T13:00:50.461Z,66.56
2023-02-19T13:04:53.609Z,65.18
2023-02-19T13:09:16.744Z,64.29
2023-02-19T13:12:49.704Z,63.90
2023-02-19T13:16:58.777Z,63.79
2023-02-19T13:21:03.308Z,64.51
2023-02-19T13:25:15.077Z,64.19
2023-02-19T13:29:06.287Z,63.71
2023-02-19T13:32:22.075Z,63.22
2023-02-19T13:36:00.311Z,62.25
2023-02-19T13:38:28.770Z,61.83
2023-02-19T13:41:00.398Z,61.60
2023-02-19T13:43:34.985Z,60.54
2023-02-19T13:46:08.328Z,59.44
2023-02-19T13:48:39.528Z,58.51
2023-02-19T13:51:17.140Z,58.10
2023-02-19T13:53:45.150Z,57.78
2023-02-19T13:56:31.700Z,57.52
2023-02-19T13:59:31.467Z,57.66
2023-02-19T14:03:05.265Z,58.71
2023-02-19T14:07:01.553Z,59.44
2023-02-19T14:10:51.617Z,59.20
2023-02-19T14:13:47.885Z,58.92
2023-02-19T14:17:40.781Z,59.12
2023-02-19T14:20:09.107Z,59.46
2023-02-19T14:22:46.452Z,59.76
2023-02-19T14:26:14.569Z,60.09
2023-02-19T14:28:47.261Z,60.07
2023-02-19T14:31:32.370Z,60.23
2023-02-19T14:34:22.989Z,59.97
2023-02-19T14:37:41.406Z,60.27
2023-02-19T14:41:31.049Z,60.91
2023-02-19T14:45:21.222Z,61.65
2023-02-19T14:49:38.841Z,62.25
2023-02-19T14:53:30.413Z,61.95
2023-02-19T14:57:07.884Z,61.24
2023-02-19T15:01:05.583Z,61.32
2023-02-19T15:03:56.627Z,61.11
2023-02-19T15:06:27.327Z,60.99
2023-02-19T15:09:55.784Z,60.58
2023-02-19T15:12:32.572Z,61.32
2023-02-19T15:15:04.995Z,61.60
2023-02-19T15:17:38.084Z,61.46
2023-02-19T15:20:11.617Z,61.57
2023-02-19T15:22:41.664Z,61.46
2023-02-19T15:25:26.534Z,61.66
2023-02-19T15:27:54.606Z,61.76
2023-02-19T15:30:28.555Z,61.59
2023-02-19T15:33:00.703Z,61.69
2023-02-19T15:35:32.740Z,61.53
2023-02-19T15:38:01.016Z,61.66
2023-02-19T15:41:29.487Z,61.72
2023-02-19T15:45:41.576Z,61.46
2023-02-19T15:48:22.910Z,61.41
2023-02-19T15:51:51.235Z,60.79
2023-02-19T15:55:49.886Z,61.22
2023-02-19T15:59:46.912Z,61.31
2023-02-19T16:03:15.673Z,61.38
2023-02-19T16:07:07.688Z,61.17
2023-02-19T16:10:21.769Z,61.23
2023-02-19T16:13:36.187Z,61.09
2023-02-19T16:16:32.680Z,60.85
2023-02-19T16:19:00.766Z,60.76
2023-02-19T16:22:28.877Z,60.67
2023-02-19T16:26:08.876Z,60.51
2023-02-19T16:29:58.793Z,60.84
2023-02-19T16:34:02.141Z,60.82
2023-02-19T16:37:51.393Z,60.46
2023-02-19T16:41:51.295Z,60.20
2023-02-19T16:45:42.380Z,59.81
2023-02-19T16:48:31.813Z,59.57
2023-02-19T16:51:00.100Z,58.93
2023-02-19T16:54:28.921Z,58.66
2023-02-19T16:58:19.051Z,58.65
2023-02-19T17:00:47.487Z,58.59
2023-02-19T17:04:16.268Z,58.42
2023-02-19T17:08:06.930Z,58.95
2023-02-19T17:10:56.292Z,58.97
2023-02-19T17:14:25.093Z,58.40
2023-02-19T17:18:15.121Z,58.61
2023-02-19T17:22:14.669Z,58.75
2023-02-19T17:26:04.376Z,58.65
2023-02-19T17:28:54.035Z,58.80
2023-02-19T17:31:22.369Z,58.94
2023-02-19T17:33:51.313Z,58.95
2023-02-19T17:36:30.300Z,58.71
2023-02-19T17:45:21.981Z,59.04
2023-02-19T17:50:05.846Z,59.57
2023-02-19T17:52:49.259Z,59.67
2023-02-19T17:55:48.271Z,59.70
2023-02-19T17:58:16.372Z,59.84
2023-02-19T18:00:44.753Z,59.94
2023-02-19T18:03:13.077Z,59.83
2023-02-19T18:05:41.144Z,59.84
2023-02-19T18:08:09.238Z,59.87
2023-02-19T18:10:37.593Z,59.84
2023-02-19T18:13:05.785Z,59.85
2023-02-19T18:15:33.951Z,59.83
2023-02-19T18:18:02.410Z,59.86
2023-02-19T18:20:31.823Z,59.91
2023-02-19T18:23:00.273Z,59.62
2023-02-19T18:25:28.550Z,59.58
2023-02-19T18:27:57.969Z,59.47
2023-02-19T18:30:26.297Z,59.19
2023-02-19T18:32:54.243Z,59.10
2023-02-19T18:35:22.267Z,59.02
2023-02-19T18:37:54.569Z,58.97
2023-02-19T18:40:26.021Z,59.00
2023-02-19T18:42:54.600Z,58.98
2023-02-19T18:45:22.980Z,58.90
2023-02-19T18:47:51.306Z,58.96
2023-02-19T18:50:20.401Z,59.22
2023-02-19T18:52:48.568Z,59.21
2023-02-19T18:55:16.616Z,59.43
2023-02-19T18:57:45.903Z,59.45
2023-02-19T19:00:18.598Z,59.52
2023-02-19T19:02:49.771Z,59.45
2023-02-19T19:05:23.701Z,59.41
2023-02-19T19:07:54.170Z,59.16
2023-02-19T19:10:22.958Z,59.29
2023-02-19T19:12:51.879Z,59.26
2023-02-19T19:15:21.099Z,59.47
2023-02-19T19:17:50.246Z,59.36
2023-02-19T19:20:20.523Z,59.34
2023-02-19T19:22:50.675Z,59.48
2023-02-19T19:25:19.957Z,59.45
2023-02-19T19:27:50.378Z,59.50
2023-02-19T19:30:20.161Z,59.68
2023-02-19T19:32:51.449Z,59.72
2023-02-19T19:35:21.444Z,59.72
2023-02-19T19:37:50.071Z,59.78
2023-02-19T19:40:18.902Z,59.95
2023-02-19T19:42:47.053Z,60.05
2023-02-19T19:45:15.959Z,59.92
2023-02-19T19:47:44.118Z,60.14
2023-02-19T19:50:14.698Z,60.27
2023-02-19T19:52:42.734Z,60.08
2023-02-19T19:55:10.948Z,60.05
2023-02-19T19:57:40.846Z,60.12
2023-02-19T20:00:12.895Z,60.09
2023-02-19T20:02:41.219Z,60.30
2023-02-19T20:05:09.878Z,60.29
2023-02-19T20:07:37.994Z,60.37
2023-02-19T20:10:08.473Z,60.35
2023-02-19T20:12:36.624Z,60.33
2023-02-19T20:15:04.964Z,60.53
2023-02-19T20:17:33.091Z,60.45
2023-02-19T20:20:01.480Z,60.52
2023-02-19T20:22:29.702Z,60.44
2023-02-19T20:24:58.129Z,60.44
2023-02-19T20:27:26.252Z,60.72
2023-02-19T20:29:54.347Z,60.60
2023-02-19T20:32:22.565Z,60.63
2023-02-19T20:34:51.352Z,60.46
2023-02-19T20:37:19.500Z,60.33
2023-02-19T20:39:47.557Z,60.48
2023-02-19T20:42:17.069Z,60.46
2023-02-19T20:44:45.462Z,60.39
2023-02-19T20:47:13.643Z,60.35
2023-02-19T20:49:46.344Z,60.44
2023-02-19T20:52:16.866Z,60.37
2023-02-19T20:54:45.096Z,60.47
2023-02-19T20:57:14.130Z,60.43
2023-02-19T20:59:44.387Z,60.54
2023-02-19T21:02:17.855Z,60.71
2023-02-19T21:04:46.196Z,60.56
2023-02-19T21:07:15.235Z,60.48
2023-02-19T21:09:43.370Z,60.60
2023-02-19T21:12:52.629Z,60.87
2023-02-19T21:15:20.664Z,60.98
2023-02-19T21:17:49.995Z,60.88
2023-02-19T21:20:18.265Z,60.99
2023-02-19T21:22:46.388Z,61.01
2023-02-19T21:26:16.257Z,61.22
2023-02-19T21:29:45.004Z,61.26
2023-02-19T21:32:34.852Z,61.53
2023-02-19T21:35:03.069Z,61.39
2023-02-19T21:37:31.349Z,61.53
2023-02-19T21:40:00.620Z,61.40
2023-02-19T21:42:28.818Z,61.46
2023-02-19T21:44:56.766Z,61.58
2023-02-19T21:47:24.874Z,61.48
2023-02-19T21:49:53.030Z,61.60
2023-02-19T21:52:23.555Z,61.84
2023-02-19T21:54:51.701Z,61.66
2023-02-19T21:57:19.697Z,61.78
2023-02-19T21:59:47.793Z,61.81
2023-02-19T22:02:19.891Z,61.74
2023-02-19T22:04:53.808Z,61.92
2023-02-19T22:07:22.275Z,61.86
2023-02-19T22:11:31.863Z,61.94
2023-02-19T22:15:22.384Z,62.14
2023-02-19T22:19:30.882Z,62.37
2023-02-19T22:22:20.913Z,62.52
2023-02-19T22:24:49.052Z,62.27
2023-02-19T22:27:17.150Z,61.86
2023-02-19T22:29:45.363Z,61.79
2023-02-19T22:32:53.911Z,61.73
2023-02-19T22:35:22.317Z,61.81
2023-02-19T22:37:50.367Z,61.82
2023-02-19T22:40:18.511Z,61.79
2023-02-19T22:43:47.146Z,61.93
2023-02-19T22:47:37.650Z,62.22
2023-02-19T22:51:31.062Z,62.53
2023-02-19T22:55:21.060Z,62.81
2023-02-19T22:59:11.108Z,62.85
2023-02-19T23:01:41.752Z,62.88
2023-02-19T23:04:52.223Z,62.71
2023-02-19T23:08:05.803Z,62.86
2023-02-19T23:10:33.802Z,62.80
2023-02-19T23:13:46.921Z,62.64
2023-02-19T23:16:43.194Z,62.69
2023-02-19T23:19:14.700Z,62.61
2023-02-19T23:21:44.763Z,62.55
2023-02-19T23:25:13.201Z,62.33
2023-02-19T23:28:12.566Z,62.66
2023-02-19T23:30:40.802Z,62.67
2023-02-19T23:34:31.181Z,62.65
2023-02-19T23:37:00.364Z,62.58
2023-02-19T23:39:29.312Z,62.70
2023-02-19T23:41:58.028Z,62.22
2023-02-19T23:45:10.488Z,62.26
2023-02-19T23:48:40.533Z,62.41
2023-02-19T23:51:09.586Z,62.49
2023-02-19T23:53:37.732Z,62.51
2023-02-19T23:56:06.348Z,62.26
2023-02-19T23:58:34.411Z,62.32
